createdAt,value
2018-03-08T00:00:08.789Z,1
2018-03-08T00:01:11.208Z,0.9
2018-03-08T00:02:13.932Z,0.8
2018-03-08T00:03:16.347Z,0.9
2018-03-08T00:04:18.765Z,0.9
2018-03-08T00:05:21.199Z,1
2018-03-08T00:06:23.620Z,0.9
2018-03-08T00:07:26.050Z,1
2018-03-08T00:08:28.480Z,1
2018-03-08T00:09:31.180Z,1
2018-03-08T00:10:33.611Z,0.9
2018-03-08T00:11:36.039Z,0.9
2018-03-08T00:12:38.461Z,0.9
2018-03-08T00:13:40.888Z,0.9
2018-03-08T00:14:43.308Z,0.9
2018-03-08T00:15:46.021Z,0.9
2018-03-08T00:16:48.460Z,0.9
2018-03-08T00:17:51.172Z,0.9
2018-03-08T00:18:53.587Z,0.9
2018-03-08T00:19:56.004Z,0.9
2018-03-08T00:20:58.435Z,0.9
2018-03-08T00:22:00.862Z,0.9
2018-03-08T00:23:03.291Z,0.9
2018-03-08T00:24:05.721Z,0.9
2018-03-08T00:25:08.144Z,0.9
2018-03-08T00:26:10.573Z,0.9
2018-03-08T00:27:12.992Z,0.8
2018-03-08T00:28:15.421Z,0.9
2018-03-08T00:29:17.841Z,0.9
2018-03-08T00:30:20.269Z,0.8
2018-03-08T00:31:22.700Z,0.9
2018-03-08T00:32:25.118Z,0.9
2018-03-08T00:33:27.841Z,0.9
2018-03-08T00:34:30.561Z,1
2018-03-08T00:35:32.983Z,0.9
2018-03-08T00:36:35.414Z,0.9
2018-03-08T00:37:38.116Z,0.9
2018-03-08T00:38:40.541Z,0.9
2018-03-08T00:39:42.977Z,0.9
2018-03-08T00:40:45.393Z,0.9
2018-03-08T00:41:48.104Z,0.8
2018-03-08T00:42:50.539Z,0.9
2018-03-08T00:43:52.963Z,0.9
2018-03-08T00:44:55.382Z,0.9
2018-03-08T00:45:57.812Z,0.9
2018-03-08T00:47:00.234Z,0.9
2018-03-08T00:48:02.670Z,0.9
2018-03-08T00:49:05.100Z,0.9
2018-03-08T00:50:07.513Z,0.9
2018-03-08T00:51:09.938Z,0.9
2018-03-08T00:52:12.369Z,0.9
2018-03-08T00:53:14.800Z,0.9
2018-03-08T00:54:17.233Z,0.9
2018-03-08T00:55:19.945Z,0.9
2018-03-08T00:56:22.361Z,0.9
2018-03-08T00:57:25.066Z,0.8
2018-03-08T00:58:27.798Z,0.8
2018-03-08T00:59:30.507Z,0.9
2018-03-08T01:00:32.931Z,0.9
2018-03-08T01:01:35.351Z,0.9
2018-03-08T01:02:37.779Z,0.9
2018-03-08T01:03:40.206Z,0.9
2018-03-08T01:04:42.644Z,0.9
2018-03-08T01:05:45.071Z,0.9
2018-03-08T01:06:47.540Z,0.9
2018-03-08T01:07:49.971Z,0.9
2018-03-08T01:08:52.397Z,0.8
2018-03-08T01:09:54.826Z,0.8
2018-03-08T01:10:57.253Z,0.8
2018-03-08T01:11:59.675Z,0.8
2018-03-08T01:13:02.095Z,0.7
2018-03-08T01:14:04.533Z,0.7
2018-03-08T01:15:06.948Z,0.7
2018-03-08T01:16:09.377Z,0.7
2018-03-08T01:17:11.803Z,0.7
2018-03-08T01:18:14.230Z,0.7
2018-03-08T01:19:16.651Z,0.7
2018-03-08T01:20:19.077Z,0.7
2018-03-08T01:21:21.493Z,0.7
2018-03-08T01:22:24.531Z,0.8
2018-03-08T01:23:26.953Z,0.9
2018-03-08T01:24:29.375Z,0.9
2018-03-08T01:25:31.801Z,0.9
2018-03-08T01:26:34.819Z,0.9
2018-03-08T01:27:37.526Z,0.9
2018-03-08T01:28:40.234Z,0.8
2018-03-08T01:29:42.658Z,0.8
2018-03-08T01:30:45.379Z,0.8
2018-03-08T01:31:47.802Z,0.9
2018-03-08T01:32:50.224Z,0.9
2018-03-08T01:33:52.645Z,0.9
2018-03-08T01:34:55.069Z,0.9
2018-03-08T01:35:57.771Z,0.9
2018-03-08T01:37:00.197Z,0.8
2018-03-08T01:38:02.611Z,0.8
2018-03-08T01:39:05.037Z,0.9
2018-03-08T01:40:07.483Z,0.9
2018-03-08T01:41:09.898Z,0.8
2018-03-08T01:42:12.323Z,0.9
2018-03-08T01:43:14.743Z,0.9
2018-03-08T01:44:17.170Z,0.9
2018-03-08T01:45:19.599Z,0.8
2018-03-08T01:46:22.048Z,0.9
2018-03-08T01:47:25.032Z,0.9
2018-03-08T01:48:27.454Z,0.9
2018-03-08T01:49:29.884Z,0.8
2018-03-08T01:50:32.596Z,0.9
2018-03-08T01:51:35.022Z,0.8
2018-03-08T01:52:37.451Z,0.8
2018-03-08T01:53:39.872Z,0.8
2018-03-08T01:54:42.291Z,0.8
2018-03-08T01:55:45.010Z,0.8
2018-03-08T01:56:47.441Z,0.8
2018-03-08T01:57:49.866Z,0.9
2018-03-08T01:58:52.279Z,0.9
2018-03-08T01:59:54.997Z,0.9
2018-03-08T02:00:57.417Z,0.9
2018-03-08T02:01:59.859Z,0.9
2018-03-08T02:03:02.271Z,0.9
2018-03-08T02:04:04.692Z,0.9
2018-03-08T02:05:07.114Z,0.9
2018-03-08T02:06:09.547Z,0.8
2018-03-08T02:07:11.976Z,0.8
2018-03-08T02:08:14.403Z,0.9
2018-03-08T02:09:17.415Z,0.8
2018-03-08T02:10:19.833Z,0.8
2018-03-08T02:11:22.263Z,0.8
2018-03-08T02:12:24.695Z,0.8
2018-03-08T02:13:27.105Z,0.8
2018-03-08T02:14:29.549Z,0.8
2018-03-08T02:15:32.259Z,0.8
2018-03-08T02:16:34.683Z,0.8
2018-03-08T02:17:37.419Z,0.7
2018-03-08T02:18:39.846Z,0.7
2018-03-08T02:19:42.541Z,0.7
2018-03-08T02:20:44.975Z,0.7
2018-03-08T02:21:47.397Z,0.7
2018-03-08T02:22:49.816Z,0.7
2018-03-08T02:23:52.246Z,0.7
2018-03-08T02:24:54.965Z,0.8
2018-03-08T02:25:57.381Z,0.8
2018-03-08T02:27:00.095Z,0.8
2018-03-08T02:28:02.531Z,0.7
2018-03-08T02:29:05.234Z,0.7
2018-03-08T02:30:07.658Z,0.7
2018-03-08T02:31:10.095Z,0.8
2018-03-08T02:32:12.812Z,0.7
2018-03-08T02:33:15.242Z,0.7
2018-03-08T02:34:17.665Z,0.8
2018-03-08T02:35:20.079Z,0.8
2018-03-08T02:36:22.816Z,0.8
2018-03-08T02:37:25.225Z,0.8
2018-03-08T02:38:27.662Z,0.8
2018-03-08T02:39:30.079Z,0.8
2018-03-08T02:40:32.508Z,0.8
2018-03-08T02:41:34.934Z,0.7
2018-03-08T02:42:37.638Z,0.7
2018-03-08T02:43:40.372Z,0.8
2018-03-08T02:44:42.796Z,0.8
2018-03-08T02:45:45.211Z,0.8
2018-03-08T02:46:47.647Z,0.7
2018-03-08T02:47:50.064Z,0.7
2018-03-08T02:48:52.492Z,0.7
2018-03-08T02:49:54.917Z,0.7
2018-03-08T02:50:57.628Z,0.7
2018-03-08T02:52:00.053Z,0.7
2018-03-08T02:53:02.483Z,0.7
2018-03-08T02:54:04.905Z,0.7
2018-03-08T02:55:07.622Z,0.7
2018-03-08T02:56:10.053Z,0.7
2018-03-08T02:57:12.768Z,0.7
2018-03-08T02:58:15.491Z,0.7
2018-03-08T02:59:18.285Z,0.7
2018-03-08T03:00:20.716Z,0.7
2018-03-08T03:01:23.445Z,0.6
2018-03-08T03:02:25.861Z,0.6
2018-03-08T03:03:28.284Z,0.7
2018-03-08T03:04:30.714Z,0.6
2018-03-08T03:05:33.417Z,0.6
2018-03-08T03:06:35.836Z,0.6
2018-03-08T03:07:38.570Z,0.6
2018-03-08T03:08:40.996Z,0.7
2018-03-08T03:09:43.425Z,0.7
2018-03-08T03:10:46.173Z,0.7
2018-03-08T03:11:48.590Z,0.7
2018-03-08T03:12:51.012Z,0.6
2018-03-08T03:13:53.434Z,0.6
2018-03-08T03:14:56.141Z,0.6
2018-03-08T03:15:58.568Z,0.6
2018-03-08T03:17:00.993Z,0.6
2018-03-08T03:18:03.692Z,0.6
2018-03-08T03:19:06.119Z,0.7
2018-03-08T03:20:08.555Z,0.6
2018-03-08T03:21:10.974Z,0.6
2018-03-08T03:22:13.400Z,0.6
2018-03-08T03:23:16.112Z,0.7
2018-03-08T03:24:18.541Z,0.7
2018-03-08T03:25:20.958Z,0.7
2018-03-08T03:26:23.386Z,0.7
2018-03-08T03:27:25.794Z,0.7
2018-03-08T03:28:28.236Z,0.7
2018-03-08T03:29:30.647Z,0.7
2018-03-08T03:30:33.370Z,0.7
2018-03-08T03:31:35.798Z,0.7
2018-03-08T03:32:38.218Z,0.7
2018-03-08T03:33:41.236Z,0.7
2018-03-08T03:34:43.956Z,0.7
2018-03-08T03:35:46.373Z,0.7
2018-03-08T03:36:48.796Z,0.7
2018-03-08T03:37:51.227Z,0.7
2018-03-08T03:38:53.651Z,0.7
2018-03-08T03:39:56.080Z,0.7
2018-03-08T03:40:58.510Z,0.7
2018-03-08T03:42:01.210Z,0.7
2018-03-08T03:43:03.643Z,0.7
2018-03-08T03:44:06.060Z,0.7
2018-03-08T03:45:08.485Z,0.7
2018-03-08T03:46:10.900Z,0.7
2018-03-08T03:47:13.329Z,0.7
2018-03-08T03:48:15.744Z,0.7
2018-03-08T03:49:18.178Z,0.7
2018-03-08T03:50:20.601Z,0.7
2018-03-08T03:51:23.021Z,0.7
2018-03-08T03:52:25.444Z,0.7
2018-03-08T03:53:27.883Z,0.7
2018-03-08T03:54:30.301Z,0.7
2018-03-08T03:55:32.722Z,0.7
2018-03-08T03:56:35.143Z,0.7
2018-03-08T03:57:37.567Z,0.7
2018-03-08T03:58:39.990Z,0.7
2018-03-08T03:59:42.418Z,0.7
2018-03-08T04:00:44.832Z,0.7
2018-03-08T04:01:47.261Z,0.7
2018-03-08T04:02:49.692Z,0.8
2018-03-08T04:03:52.110Z,0.7
2018-03-08T04:04:54.817Z,0.8
2018-03-08T04:05:57.240Z,0.8
2018-03-08T04:06:59.951Z,0.8
2018-03-08T04:08:02.388Z,0.8
2018-03-08T04:09:04.811Z,0.7
2018-03-08T04:10:07.228Z,0.8
2018-03-08T04:11:09.648Z,0.8
2018-03-08T04:12:12.087Z,0.8
2018-03-08T04:13:14.502Z,0.8
2018-03-08T04:14:17.210Z,0.8
2018-03-08T04:15:19.615Z,0.8
2018-03-08T04:16:22.043Z,0.7
2018-03-08T04:17:24.478Z,0.7
2018-03-08T04:18:26.901Z,0.7
2018-03-08T04:19:29.325Z,0.7
2018-03-08T04:20:31.746Z,0.8
2018-03-08T04:21:34.172Z,0.8
2018-03-08T04:22:36.600Z,0.8
2018-03-08T04:23:39.020Z,0.8
2018-03-08T04:24:41.737Z,0.8
2018-03-08T04:25:44.156Z,0.8
2018-03-08T04:26:46.575Z,0.8
2018-03-08T04:27:49.005Z,0.8
2018-03-08T04:28:51.427Z,0.8
2018-03-08T04:29:53.849Z,0.8
2018-03-08T04:30:56.560Z,0.8
2018-03-08T04:31:58.979Z,0.8
2018-03-08T04:33:01.403Z,0.8
2018-03-08T04:34:03.821Z,0.8
2018-03-08T04:35:06.245Z,0.8
2018-03-08T04:36:08.959Z,0.8
2018-03-08T04:37:11.387Z,0.8
2018-03-08T04:38:13.811Z,0.8
2018-03-08T04:39:16.522Z,0.8
2018-03-08T04:40:18.942Z,0.8
2018-03-08T04:41:21.370Z,0.8
2018-03-08T04:42:23.793Z,0.8
2018-03-08T04:43:26.217Z,0.8
2018-03-08T04:44:28.942Z,0.8
2018-03-08T04:45:31.362Z,0.8
2018-03-08T04:46:33.793Z,0.8
2018-03-08T04:47:36.516Z,0.8
2018-03-08T04:48:39.220Z,0.8
2018-03-08T04:49:41.933Z,0.8
2018-03-08T04:50:44.343Z,0.8
2018-03-08T04:51:46.774Z,0.8
2018-03-08T04:52:49.202Z,0.8
2018-03-08T04:53:51.631Z,0.8
2018-03-08T04:54:54.055Z,0.8
2018-03-08T04:55:56.475Z,0.8
2018-03-08T04:56:58.908Z,0.8
2018-03-08T04:58:01.333Z,0.8
2018-03-08T04:59:03.747Z,0.8
2018-03-08T05:00:06.164Z,0.8
2018-03-08T05:01:08.590Z,0.8
2018-03-08T05:02:11.012Z,0.8
2018-03-08T05:03:13.720Z,0.8
2018-03-08T05:04:16.434Z,0.8
2018-03-08T05:05:18.851Z,0.8
2018-03-08T05:06:21.276Z,0.8
2018-03-08T05:07:23.991Z,0.9
2018-03-08T05:08:27.269Z,0.9
2018-03-08T05:09:29.684Z,0.9
2018-03-08T05:10:32.395Z,0.9
2018-03-08T05:11:34.814Z,1
2018-03-08T05:12:37.251Z,1
2018-03-08T05:13:39.959Z,0.9
2018-03-08T05:14:42.654Z,0.9
2018-03-08T05:15:45.085Z,0.9
2018-03-08T05:16:47.512Z,0.9
2018-03-08T05:17:49.936Z,1
2018-03-08T05:18:52.364Z,1
2018-03-08T05:19:55.360Z,1
2018-03-08T05:20:57.782Z,1
2018-03-08T05:22:00.190Z,1
2018-03-08T05:23:02.622Z,1
2018-03-08T05:24:05.062Z,1
2018-03-08T05:25:07.489Z,1
2018-03-08T05:26:09.919Z,1
2018-03-08T05:27:12.343Z,1.1
2018-03-08T05:28:14.765Z,1.1
2018-03-08T05:29:17.197Z,1.1
2018-03-08T05:30:19.612Z,1.1
2018-03-08T05:31:22.027Z,1
2018-03-08T05:32:24.460Z,1
2018-03-08T05:33:27.170Z,1.1
2018-03-08T05:34:29.590Z,1
2018-03-08T05:35:32.309Z,1
2018-03-08T05:36:34.736Z,1
2018-03-08T05:37:37.160Z,1
2018-03-08T05:38:39.878Z,1.1
2018-03-08T05:39:42.598Z,1.1
2018-03-08T05:40:45.032Z,1.1
2018-03-08T05:41:47.463Z,1.1
2018-03-08T05:42:49.881Z,1.1
2018-03-08T05:43:52.305Z,1
2018-03-08T05:44:54.730Z,1
2018-03-08T05:45:57.156Z,1
2018-03-08T05:46:59.581Z,1
2018-03-08T05:48:02.008Z,1.1
2018-03-08T05:49:04.434Z,1.1
2018-03-08T05:50:07.152Z,1
2018-03-08T05:51:09.574Z,1.1
2018-03-08T05:52:12.002Z,1.1
2018-03-08T05:53:14.430Z,1
2018-03-08T05:54:16.850Z,1
2018-03-08T05:55:19.287Z,1
2018-03-08T05:56:21.695Z,1
2018-03-08T05:57:24.413Z,1
2018-03-08T05:58:26.831Z,1
2018-03-08T05:59:29.253Z,1.1
2018-03-08T06:00:31.682Z,1.1
2018-03-08T06:01:34.112Z,1
2018-03-08T06:02:36.537Z,1.1
2018-03-08T06:03:38.973Z,1
2018-03-08T06:04:41.396Z,1
2018-03-08T06:05:43.825Z,1
2018-03-08T06:06:46.263Z,1
2018-03-08T06:07:48.688Z,1
2018-03-08T06:08:51.116Z,1
2018-03-08T06:09:53.540Z,1
2018-03-08T06:10:55.965Z,1
2018-03-08T06:11:58.680Z,1.1
2018-03-08T06:13:01.106Z,1
2018-03-08T06:14:03.520Z,1.1
2018-03-08T06:15:05.958Z,1.1
2018-03-08T06:16:08.664Z,1.1
2018-03-08T06:17:11.096Z,1.1
2018-03-08T06:18:13.516Z,1.1
2018-03-08T06:19:15.949Z,1.1
2018-03-08T06:20:18.371Z,1
2018-03-08T06:21:20.793Z,1
2018-03-08T06:22:23.218Z,1
2018-03-08T06:23:25.645Z,1.1
2018-03-08T06:24:28.374Z,1.1
2018-03-08T06:25:30.799Z,1.1
2018-03-08T06:26:33.260Z,1.1
2018-03-08T06:27:35.647Z,1.1
2018-03-08T06:28:38.072Z,1.1
2018-03-08T06:29:40.795Z,1.1
2018-03-08T06:30:43.500Z,1
2018-03-08T06:31:46.217Z,1.1
2018-03-08T06:32:48.650Z,1.1
2018-03-08T06:33:51.079Z,1.1
2018-03-08T06:34:53.510Z,1.1
2018-03-08T06:35:55.933Z,1.1
2018-03-08T06:36:58.357Z,1.1
2018-03-08T06:38:00.790Z,1.2
2018-03-08T06:39:03.272Z,1.2
2018-03-08T06:40:05.976Z,1.1
2018-03-08T06:41:08.404Z,1.1
2018-03-08T06:42:10.822Z,1.1
2018-03-08T06:43:13.820Z,1.1
2018-03-08T06:44:16.247Z,1.1
2018-03-08T06:45:18.958Z,1.1
2018-03-08T06:46:21.953Z,1.1
2018-03-08T06:47:24.394Z,1.1
2018-03-08T06:48:26.807Z,1
2018-03-08T06:49:29.243Z,1.1
2018-03-08T06:50:31.935Z,1.1
2018-03-08T06:51:34.367Z,1
2018-03-08T06:52:36.781Z,1.1
2018-03-08T06:53:39.488Z,1.1
2018-03-08T06:54:41.930Z,1.1
2018-03-08T06:55:44.347Z,1.1
2018-03-08T06:56:46.769Z,1.1
2018-03-08T06:57:49.203Z,1.1
2018-03-08T06:58:51.621Z,1.1
2018-03-08T06:59:54.053Z,1.1
2018-03-08T07:00:56.485Z,1.2
2018-03-08T07:01:58.895Z,1.2
2018-03-08T07:03:01.327Z,1.2
2018-03-08T07:04:03.753Z,1.2
2018-03-08T07:05:06.166Z,1.2
2018-03-08T07:06:08.894Z,1.2
2018-03-08T07:07:11.312Z,1.1
2018-03-08T07:08:13.731Z,1.1
2018-03-08T07:09:16.156Z,1.1
2018-03-08T07:10:18.578Z,1.2
2018-03-08T07:11:21.002Z,1.2
2018-03-08T07:12:23.429Z,1.2
2018-03-08T07:13:25.831Z,1.2
2018-03-08T07:14:28.258Z,1.2
2018-03-08T07:15:30.690Z,1.3
2018-03-08T07:16:33.121Z,1.3
2018-03-08T07:17:35.541Z,1.3
2018-03-08T07:18:38.250Z,1.4
2018-03-08T07:19:40.961Z,1.4
2018-03-08T07:20:43.388Z,1.3
2018-03-08T07:21:45.804Z,1.3
2018-03-08T07:22:48.511Z,1.4
2018-03-08T07:23:50.938Z,1.4
2018-03-08T07:24:53.360Z,1.4
2018-03-08T07:25:55.793Z,1.4
2018-03-08T07:26:58.507Z,1.4
2018-03-08T07:28:00.913Z,1.4
2018-03-08T07:29:03.348Z,1.5
2018-03-08T07:30:05.776Z,1.5
2018-03-08T07:31:08.203Z,1.5
2018-03-08T07:32:10.915Z,1.5
2018-03-08T07:33:13.343Z,1.5
2018-03-08T07:34:15.763Z,1.6
2018-03-08T07:35:18.782Z,1.6
2018-03-08T07:36:21.485Z,1.6
2018-03-08T07:37:23.907Z,1.6
2018-03-08T07:38:26.330Z,1.7
2018-03-08T07:39:28.756Z,1.6
2018-03-08T07:40:31.461Z,1.6
2018-03-08T07:41:33.894Z,1.6
2018-03-08T07:42:36.602Z,1.7
2018-03-08T07:43:39.030Z,1.7
2018-03-08T07:44:41.450Z,1.7
2018-03-08T07:45:44.169Z,1.7
2018-03-08T07:46:46.589Z,1.7
2018-03-08T07:47:49.015Z,1.7
2018-03-08T07:48:51.447Z,1.8
2018-03-08T07:49:53.909Z,1.8
2018-03-08T07:50:56.701Z,1.8
2018-03-08T07:51:59.270Z,1.9
2018-03-08T07:53:02.029Z,1.9
2018-03-08T07:54:05.084Z,1.9
2018-03-08T07:55:07.729Z,1.9
2018-03-08T07:56:10.154Z,1.8
2018-03-08T07:57:12.577Z,1.9
2018-03-08T07:58:15.001Z,1.9
2018-03-08T07:59:17.416Z,2
2018-03-08T08:00:19.914Z,2
2018-03-08T08:01:22.309Z,2
2018-03-08T08:02:24.726Z,2
2018-03-08T08:03:27.172Z,2.1
2018-03-08T08:04:29.874Z,2
2018-03-08T08:05:32.577Z,2
2018-03-08T08:06:35.295Z,2
2018-03-08T08:07:37.721Z,2
2018-03-08T08:08:40.144Z,2.1
2018-03-08T08:09:42.578Z,2.1
2018-03-08T08:10:44.991Z,2.1
2018-03-08T08:11:47.985Z,2.1
2018-03-08T08:12:50.422Z,2.1
2018-03-08T08:13:53.126Z,2.1
2018-03-08T08:14:55.546Z,2.1
2018-03-08T08:15:57.981Z,2.1
2018-03-08T08:17:00.393Z,2.1
2018-03-08T08:18:03.115Z,2.1
2018-03-08T08:19:05.538Z,2
2018-03-08T08:20:07.973Z,2.1
2018-03-08T08:21:10.411Z,2.1
2018-03-08T08:22:13.122Z,2.2
2018-03-08T08:23:15.558Z,2.2
2018-03-08T08:24:17.988Z,2.3
2018-03-08T08:25:20.413Z,2.3
2018-03-08T08:26:23.124Z,2.3
2018-03-08T08:27:25.821Z,2.3
2018-03-08T08:28:28.246Z,2.3
2018-03-08T08:29:30.966Z,2.4
2018-03-08T08:30:33.396Z,2.4
2018-03-08T08:31:35.817Z,2.4
2018-03-08T08:32:38.243Z,2.5
2018-03-08T08:33:40.664Z,2.6
2018-03-08T08:34:43.100Z,2.5
2018-03-08T08:35:45.523Z,2.6
2018-03-08T08:36:47.934Z,2.6
2018-03-08T08:37:50.368Z,2.7
2018-03-08T08:38:52.796Z,2.7
2018-03-08T08:39:55.230Z,2.7
2018-03-08T08:40:57.655Z,2.6
2018-03-08T08:42:00.082Z,2.7
2018-03-08T08:43:02.609Z,2.7
2018-03-08T08:44:05.333Z,2.7
2018-03-08T08:45:08.051Z,2.7
2018-03-08T08:46:10.464Z,2.7
2018-03-08T08:47:12.893Z,2.7
2018-03-08T08:48:15.321Z,2.6
2018-03-08T08:49:17.746Z,2.7
2018-03-08T08:50:20.173Z,2.7
2018-03-08T08:51:22.613Z,2.7
2018-03-08T08:52:25.041Z,2.7
2018-03-08T08:53:27.746Z,2.6
2018-03-08T08:54:30.783Z,2.6
2018-03-08T08:55:33.491Z,2.6
2018-03-08T08:56:35.903Z,2.6
2018-03-08T08:57:38.332Z,2.6
2018-03-08T08:58:41.032Z,2.6
2018-03-08T08:59:43.469Z,2.6
2018-03-08T09:00:45.904Z,2.5
2018-03-08T09:01:48.325Z,2.5
2018-03-08T09:02:50.756Z,2.5
2018-03-08T09:03:53.495Z,2.5
2018-03-08T09:04:55.922Z,2.5
2018-03-08T09:05:58.345Z,2.3
2018-03-08T09:07:00.770Z,2.3
2018-03-08T09:08:03.471Z,2.3
2018-03-08T09:09:06.199Z,2.2
2018-03-08T09:10:08.611Z,2.1
2018-03-08T09:11:11.341Z,2.1
2018-03-08T09:12:14.058Z,2
2018-03-08T09:13:16.491Z,2
2018-03-08T09:14:18.920Z,2
2018-03-08T09:15:21.348Z,1.9
2018-03-08T09:16:24.081Z,1.9
2018-03-08T09:17:26.522Z,1.9
2018-03-08T09:18:28.941Z,1.8
2018-03-08T09:19:31.361Z,1.8
2018-03-08T09:20:33.790Z,1.8
2018-03-08T09:21:36.506Z,1.8
2018-03-08T09:22:38.935Z,1.8
2018-03-08T09:23:41.643Z,1.8
2018-03-08T09:24:44.367Z,1.8
2018-03-08T09:25:46.800Z,1.8
2018-03-08T09:26:49.235Z,1.8
2018-03-08T09:27:51.658Z,1.8
2018-03-08T09:28:54.087Z,1.8
2018-03-08T09:29:56.512Z,1.8
2018-03-08T09:30:58.933Z,1.8
2018-03-08T09:32:01.667Z,1.9
2018-03-08T09:33:04.094Z,1.9
2018-03-08T09:34:06.510Z,1.9
2018-03-08T09:35:08.941Z,1.9
2018-03-08T09:36:11.371Z,2
2018-03-08T09:37:14.082Z,2
2018-03-08T09:38:16.516Z,2
2018-03-08T09:39:18.933Z,2
2018-03-08T09:40:21.357Z,2.1
2018-03-08T09:41:23.798Z,2.1
2018-03-08T09:42:26.218Z,2.2
2018-03-08T09:43:28.644Z,2.2
2018-03-08T09:44:31.069Z,2.2
2018-03-08T09:45:33.796Z,2.2
2018-03-08T09:46:36.510Z,2.2
2018-03-08T09:47:39.212Z,2.2
2018-03-08T09:48:41.932Z,2.3
2018-03-08T09:49:44.640Z,2.3
2018-03-08T09:50:47.048Z,2.3
2018-03-08T09:51:49.840Z,2.4
2018-03-08T09:52:52.217Z,2.4
2018-03-08T09:53:54.649Z,2.4
2018-03-08T09:54:57.081Z,2.4
2018-03-08T09:55:59.503Z,2.4
2018-03-08T09:57:01.928Z,2.5
2018-03-08T09:58:04.358Z,2.5
2018-03-08T09:59:06.887Z,2.5
2018-03-08T10:00:09.523Z,2.5
2018-03-08T10:01:11.954Z,2.5
2018-03-08T10:02:14.375Z,2.5
2018-03-08T10:03:16.802Z,2.6
2018-03-08T10:04:19.236Z,2.6
2018-03-08T10:05:22.537Z,2.6
2018-03-08T10:06:24.967Z,2.6
2018-03-08T10:07:27.388Z,2.7
2018-03-08T10:08:29.809Z,2.7
2018-03-08T10:09:32.242Z,2.7
2018-03-08T10:10:35.237Z,2.8
2018-03-08T10:11:37.657Z,2.8
2018-03-08T10:12:40.387Z,2.7
2018-03-08T10:13:42.808Z,2.8
2018-03-08T10:14:45.234Z,2.8
2018-03-08T10:15:47.946Z,2.8
2018-03-08T10:16:50.370Z,2.8
2018-03-08T10:17:52.795Z,2.8
2018-03-08T10:18:55.216Z,2.9
2018-03-08T10:19:57.930Z,2.9
2018-03-08T10:21:00.360Z,2.8
2018-03-08T10:22:02.785Z,2.8
2018-03-08T10:23:05.219Z,2.9
2018-03-08T10:24:07.647Z,2.9
2018-03-08T10:25:10.351Z,2.9
2018-03-08T10:26:13.096Z,3
2018-03-08T10:27:15.517Z,2.9
2018-03-08T10:28:17.937Z,3
2018-03-08T10:29:20.363Z,2.9
2018-03-08T10:30:22.789Z,3
2018-03-08T10:31:25.209Z,3
2018-03-08T10:32:27.640Z,3
2018-03-08T10:33:30.066Z,3
2018-03-08T10:34:32.789Z,3
2018-03-08T10:35:35.227Z,3
2018-03-08T10:36:37.943Z,3
2018-03-08T10:37:40.372Z,3
2018-03-08T10:38:42.801Z,3
2018-03-08T10:39:45.523Z,3
2018-03-08T10:40:47.942Z,3.1
2018-03-08T10:41:50.368Z,3.1
2018-03-08T10:42:52.788Z,3
2018-03-08T10:43:55.208Z,3
2018-03-08T10:44:57.630Z,3.1
2018-03-08T10:46:00.052Z,3.1
2018-03-08T10:47:02.477Z,3.1
2018-03-08T10:48:04.903Z,3.1
2018-03-08T10:49:07.376Z,3
2018-03-08T10:50:09.745Z,3.1
2018-03-08T10:51:12.181Z,3.1
2018-03-08T10:52:14.614Z,3.1
2018-03-08T10:53:17.049Z,3.1
2018-03-08T10:54:19.482Z,3.2
2018-03-08T10:55:21.908Z,3.2
2018-03-08T10:56:24.606Z,3.2
2018-03-08T10:57:27.043Z,3.3
2018-03-08T10:58:29.469Z,3.3
2018-03-08T10:59:31.881Z,3.3
2018-03-08T11:00:34.631Z,3.3
2018-03-08T11:01:37.051Z,3.3
2018-03-08T11:02:39.476Z,3.3
2018-03-08T11:03:42.333Z,3.4
2018-03-08T11:04:44.393Z,3.4
2018-03-08T11:05:47.524Z,3.4
2018-03-08T11:06:51.733Z,3.4
2018-03-08T11:07:54.477Z,3.4
2018-03-08T11:08:56.904Z,3.5
2018-03-08T11:09:59.336Z,3.6
2018-03-08T11:11:01.758Z,3.6
2018-03-08T11:12:04.215Z,3.6
2018-03-08T11:13:06.621Z,3.6
2018-03-08T11:14:09.326Z,3.7
2018-03-08T11:15:11.764Z,3.7
2018-03-08T11:16:14.178Z,3.7
2018-03-08T11:17:16.609Z,3.7
2018-03-08T11:18:19.328Z,3.8
2018-03-08T11:19:22.049Z,3.7
2018-03-08T11:20:24.481Z,3.8
2018-03-08T11:21:26.904Z,3.8
2018-03-08T11:22:29.326Z,3.8
2018-03-08T11:23:32.061Z,3.8
2018-03-08T11:24:34.485Z,3.8
2018-03-08T11:25:36.908Z,3.9
2018-03-08T11:26:39.331Z,3.9
2018-03-08T11:27:41.763Z,3.8
2018-03-08T11:28:44.194Z,3.9
2018-03-08T11:29:46.636Z,4
2018-03-08T11:30:49.051Z,4
2018-03-08T11:31:51.477Z,4
2018-03-08T11:32:54.201Z,4
2018-03-08T11:33:56.631Z,4
2018-03-08T11:34:59.056Z,4.1
2018-03-08T11:36:01.481Z,4.1
2018-03-08T11:37:03.908Z,4.1
2018-03-08T11:38:06.629Z,4.1
2018-03-08T11:39:09.055Z,4.2
2018-03-08T11:40:11.778Z,4.2
2018-03-08T11:41:14.783Z,4.1
2018-03-08T11:42:17.217Z,4.1
2018-03-08T11:43:19.947Z,4.1
2018-03-08T11:44:22.363Z,4.2
2018-03-08T11:45:24.792Z,4.2
2018-03-08T11:46:27.513Z,4.3
2018-03-08T11:47:29.929Z,4.3
2018-03-08T11:48:33.755Z,4.3
2018-03-08T11:49:36.435Z,4.4
2018-03-08T11:50:38.862Z,4.4
2018-03-08T11:51:41.289Z,4.4
2018-03-08T11:52:43.715Z,4.4
2018-03-08T11:53:46.135Z,4.4
2018-03-08T11:54:48.600Z,4.4
2018-03-08T11:55:50.994Z,4.4
2018-03-08T11:56:53.419Z,4.5
2018-03-08T11:57:55.845Z,4.4
2018-03-08T11:58:58.556Z,4.4
2018-03-08T12:00:00.980Z,4.4
2018-03-08T12:01:03.412Z,4.4
2018-03-08T12:02:05.818Z,4.4
2018-03-08T12:03:08.259Z,4.5
2018-03-08T12:04:10.696Z,4.5
2018-03-08T12:05:13.417Z,4.5
2018-03-08T12:06:15.842Z,4.5
2018-03-08T12:07:18.562Z,4.6
2018-03-08T12:08:21.269Z,4.6
2018-03-08T12:09:23.703Z,4.6
2018-03-08T12:10:26.169Z,4.5
2018-03-08T12:11:28.551Z,4.5
2018-03-08T12:12:30.973Z,4.6
2018-03-08T12:13:33.408Z,4.7
2018-03-08T12:14:35.842Z,4.7
2018-03-08T12:15:38.270Z,4.6
2018-03-08T12:16:40.704Z,4.7
2018-03-08T12:17:43.127Z,4.7
2018-03-08T12:18:45.551Z,4.7
2018-03-08T12:19:47.975Z,4.8
2018-03-08T12:20:50.414Z,4.8
2018-03-08T12:21:52.832Z,4.8
2018-03-08T12:22:55.260Z,4.8
2018-03-08T12:23:57.687Z,4.9
2018-03-08T12:25:00.117Z,4.9
2018-03-08T12:26:02.833Z,5
2018-03-08T12:27:05.272Z,5
2018-03-08T12:28:07.694Z,5
2018-03-08T12:29:10.125Z,4.9
2018-03-08T12:30:13.121Z,4.9
2018-03-08T12:31:15.552Z,4.9
2018-03-08T12:32:17.980Z,5
2018-03-08T12:33:20.446Z,5
2018-03-08T12:34:23.133Z,5
2018-03-08T12:35:25.880Z,5.1
2018-03-08T12:36:28.583Z,5.2
2018-03-08T12:37:31.027Z,5.3
2018-03-08T12:38:33.457Z,5.4
2018-03-08T12:39:36.289Z,5.5
2018-03-08T12:40:38.671Z,5.9
2018-03-08T12:41:41.100Z,6
2018-03-08T12:42:43.819Z,6.2
2018-03-08T12:43:46.259Z,6.6
2018-03-08T12:44:48.694Z,6.5
2018-03-08T12:45:51.415Z,6.6
2018-03-08T12:46:53.836Z,6.5
2018-03-08T12:47:56.274Z,6.3
2018-03-08T12:48:58.704Z,6.2
2018-03-08T12:50:01.139Z,6.3
2018-03-08T12:51:03.568Z,6.4
2018-03-08T12:52:05.997Z,6.4
2018-03-08T12:53:08.432Z,6.3
2018-03-08T12:54:10.873Z,6.3
2018-03-08T12:55:13.296Z,6.3
2018-03-08T12:56:15.719Z,6.4
2018-03-08T12:57:18.198Z,6.4
2018-03-08T12:58:20.597Z,6.4
2018-03-08T12:59:23.340Z,6.3
2018-03-08T13:00:25.780Z,6.3
2018-03-08T13:01:28.198Z,6.2
2018-03-08T13:02:30.633Z,6.4
2018-03-08T13:03:33.062Z,6.5
2018-03-08T13:04:35.499Z,6.6
2018-03-08T13:05:38.213Z,6.5
2018-03-08T13:06:40.640Z,6.6
2018-03-08T13:07:43.068Z,6.5
2018-03-08T13:08:45.799Z,6.5
2018-03-08T13:09:48.230Z,6.6
2018-03-08T13:10:50.939Z,6.5
2018-03-08T13:11:53.374Z,6.5
2018-03-08T13:12:56.105Z,6.6
2018-03-08T13:13:58.539Z,6.6
2018-03-08T13:15:00.973Z,6.6
2018-03-08T13:16:03.400Z,6.6
2018-03-08T13:17:06.583Z,6.6
2018-03-08T13:18:10.848Z,6.8
2018-03-08T13:19:15.630Z,7.1
2018-03-08T13:20:19.491Z,7.1
2018-03-08T13:21:23.815Z,7.2
2018-03-08T13:22:28.200Z,7
2018-03-08T13:23:31.618Z,7
2018-03-08T13:24:34.612Z,6.9
2018-03-08T13:25:37.059Z,7
2018-03-08T13:26:39.481Z,7
2018-03-08T13:27:41.902Z,7
2018-03-08T13:28:44.338Z,7
2018-03-08T13:29:46.771Z,6.9
2018-03-08T13:30:49.203Z,7
2018-03-08T13:31:51.928Z,7.4
2018-03-08T13:32:54.365Z,7.4
2018-03-08T13:33:56.791Z,7.3
2018-03-08T13:34:59.544Z,7.1
2018-03-08T13:36:02.255Z,7
2018-03-08T13:37:04.696Z,7.1
2018-03-08T13:38:07.420Z,7.1
2018-03-08T13:39:09.851Z,7.2
2018-03-08T13:40:12.285Z,7.2
2018-03-08T13:41:14.717Z,7.3
2018-03-08T13:42:17.153Z,7.4
2018-03-08T13:43:19.614Z,7.4
2018-03-08T13:44:22.315Z,7.6
2018-03-08T13:45:24.749Z,7.8
2018-03-08T13:46:27.170Z,7.7
2018-03-08T13:47:29.604Z,8.1
2018-03-08T13:48:32.034Z,8.1
2018-03-08T13:49:34.461Z,8.2
2018-03-08T13:50:36.908Z,8.4
2018-03-08T13:51:39.340Z,8.4
2018-03-08T13:52:41.775Z,8.5
2018-03-08T13:53:44.216Z,8.7
2018-03-08T13:54:46.653Z,8.6
2018-03-08T13:55:49.087Z,8.6
2018-03-08T13:56:51.525Z,8.6
2018-03-08T13:57:54.256Z,8.7
2018-03-08T13:58:56.691Z,8.6
2018-03-08T13:59:59.123Z,8.8
2018-03-08T14:01:01.822Z,8.8
2018-03-08T14:02:04.264Z,8.7
2018-03-08T14:03:06.704Z,8.8
2018-03-08T14:04:09.138Z,8.9
2018-03-08T14:05:11.576Z,9.2
2018-03-08T14:06:14.013Z,9.5
2018-03-08T14:07:16.450Z,9.6
2018-03-08T14:08:18.995Z,9.6
2018-03-08T14:09:21.422Z,9.1
2018-03-08T14:10:23.847Z,9
2018-03-08T14:11:26.285Z,9.6
2018-03-08T14:12:28.720Z,9.4
2018-03-08T14:13:31.438Z,10
2018-03-08T14:14:33.872Z,10
2018-03-08T14:15:36.323Z,9.8
2018-03-08T14:16:39.338Z,9.7
2018-03-08T14:17:41.770Z,9.5
2018-03-08T14:18:44.207Z,9.2
2018-03-08T14:19:46.649Z,9.3
2018-03-08T14:20:49.078Z,9.6
2018-03-08T14:21:51.520Z,9.4
2018-03-08T14:22:53.944Z,9.7
2018-03-08T14:23:56.382Z,9.8
2018-03-08T14:24:58.837Z,9.7
2018-03-08T14:26:01.269Z,9.7
2018-03-08T14:27:03.707Z,9.8
2018-03-08T14:28:06.145Z,9.7